Weather at Amelia Earhart Airport

Public forecast

Using degrees Fahrenheit for public forecast. Weather courtesy of forecast.io.

Closest aviation weather report (METAR) to Amelia Earhart Airport

Closest report is Rosecrans Memorial Airport, 17.4 nm (32.2 km) NE. Retrieved 2022/08/18 02:53 UTC (59 minutes ago):

KSTJ 180253Z AUTO 00000KT 10SM CLR 19/18 A3010 RMK AO2 SLP186 T01890183 53005

Closest aviation forecast (TAF) to Amelia Earhart Airport

Closest forecast is Rosecrans Memorial Airport, 17.4 nm (32.2 km) NE. Retrieved 2022-08-18 00:22 UTC (3 hours ago):

TAF KSTJ 172320Z 1800/1824 06005KT P6SM FEW060 FM181800 18005KT P6SM FEW060